createdAt,value
2019-04-07T00:00:26.524Z,91.1788
2019-04-07T00:01:44.377Z,90.5974
2019-04-07T00:03:02.453Z,91.0048
2019-04-07T00:04:20.355Z,90.6844
2019-04-07T00:05:37.875Z,90.7301
2019-04-07T00:06:56.141Z,90.5745
2019-04-07T00:08:13.669Z,90.0511
2019-04-07T00:09:31.132Z,90.4723
2019-04-07T00:10:48.614Z,91.5175
2019-04-07T00:12:06.131Z,92.3354
2019-04-07T00:13:23.651Z,92.2209
2019-04-07T00:14:41.104Z,91.5938
2019-04-07T00:15:57.551Z,91.3527
2019-04-07T00:17:15.018Z,91.0735
2019-04-07T00:18:32.527Z,89.9016
2019-04-07T00:19:50.406Z,89.5659
2019-04-07T00:21:07.896Z,88.9067
2019-04-07T00:22:25.318Z,89.5994
2019-04-07T00:23:42.979Z,89.8604
2019-04-07T00:25:00.720Z,89.7139
2019-04-07T00:26:18.255Z,90.2708
2019-04-07T00:27:35.737Z,89.9153
2019-04-07T00:28:53.202Z,89.6483
2019-04-07T00:30:10.755Z,89.8817
2019-04-07T00:31:28.877Z,90.2892
2019-04-07T00:32:46.769Z,89.1127
2019-04-07T00:34:04.252Z,88.9479
2019-04-07T00:35:26.822Z,88.5496
2019-04-07T00:36:43.083Z,89.0135
2019-04-07T00:38:00.616Z,88.6915
2019-04-07T00:39:18.113Z,89.0486
2019-04-07T00:40:35.889Z,89.4881
2019-04-07T00:41:53.332Z,89.2821
2019-04-07T00:43:10.884Z,89.6956
2019-04-07T00:44:29.023Z,90.4631
2019-04-07T00:45:47.007Z,90.4372
2019-04-07T00:47:04.480Z,90.3212
2019-04-07T00:48:22.159Z,90.4555
2019-04-07T00:49:40.078Z,90.3075
2019-04-07T00:50:57.634Z,90.5135
2019-04-07T00:52:15.050Z,90.5043
2019-04-07T00:53:32.599Z,89.7810
2019-04-07T00:54:50.055Z,89.7185
2019-04-07T00:56:07.487Z,90.0618
2019-04-07T00:57:25.344Z,90.9178
2019-04-07T00:58:44.493Z,91.7769
2019-04-07T01:00:02.824Z,91.2245
2019-04-07T01:01:20.720Z,90.6386
2019-04-07T01:02:38.757Z,92.3781
2019-04-07T01:03:56.833Z,90.5104
2019-04-07T01:05:14.773Z,91.6548
2019-04-07T01:06:32.921Z,90.8202
2019-04-07T01:07:50.947Z,91.4488
2019-04-07T01:09:09.110Z,90.5272
2019-04-07T01:10:27.264Z,90.2312
2019-04-07T01:11:44.782Z,91.4839
2019-04-07T01:13:02.212Z,91.7678
2019-04-07T01:14:19.806Z,91.4168
2019-04-07T01:15:37.267Z,92.2621
2019-04-07T01:16:53.760Z,92.4819
2019-04-07T01:18:11.207Z,90.8293
2019-04-07T01:19:28.870Z,90.5150
2019-04-07T01:20:46.869Z,88.7755
2019-04-07T01:22:04.331Z,89.4743
2019-04-07T01:23:22.344Z,89.6178
2019-04-07T01:24:40.503Z,89.5491
2019-04-07T01:25:58.536Z,90.2998
2019-04-07T01:27:16.043Z,90.4814
2019-04-07T01:28:33.488Z,91.0002
2019-04-07T01:29:50.938Z,91.9646
2019-04-07T01:31:08.777Z,91.5953
2019-04-07T01:32:26.676Z,91.7815
2019-04-07T01:33:44.348Z,91.1131
2019-04-07T01:35:02.414Z,90.9026
2019-04-07T01:36:19.942Z,90.8431
2019-04-07T01:37:37.381Z,90.4463
2019-04-07T01:38:54.887Z,89.9641
2019-04-07T01:40:12.372Z,89.5842
2019-04-07T01:41:29.806Z,89.2790
2019-04-07T01:42:47.286Z,89.7490
2019-04-07T01:44:04.798Z,88.8838
2019-04-07T01:45:22.285Z,89.2958
2019-04-07T01:46:39.704Z,89.6361
2019-04-07T01:47:57.145Z,89.6071
2019-04-07T01:49:15.025Z,89.3568
2019-04-07T01:50:32.781Z,89.3874
2019-04-07T01:51:50.442Z,89.2317
2019-04-07T01:53:07.893Z,89.6681
2019-04-07T01:54:25.705Z,89.6712
2019-04-07T01:55:43.881Z,90.1167
2019-04-07T01:57:01.407Z,90.7469
2019-04-07T01:58:20.057Z,91.2917
2019-04-07T01:59:37.672Z,91.3054
2019-04-07T02:00:54.158Z,91.6091
2019-04-07T02:02:11.584Z,91.6045
2019-04-07T02:03:29.105Z,91.7006
2019-04-07T02:04:46.553Z,91.8547
2019-04-07T02:06:05.557Z,92.0439
2019-04-07T02:07:23.777Z,91.9844
2019-04-07T02:08:41.725Z,91.7006
2019-04-07T02:10:00.045Z,91.2154
2019-04-07T02:11:17.528Z,91.1284
2019-04-07T02:12:35.168Z,90.9041
2019-04-07T02:13:53.263Z,89.7643
2019-04-07T02:15:11.310Z,89.5109
2019-04-07T02:16:28.780Z,90.1884
2019-04-07T02:17:46.926Z,90.6798
2019-04-07T02:19:05.047Z,90.5867
2019-04-07T02:20:23.189Z,90.3822
2019-04-07T02:21:40.713Z,90.2571
2019-04-07T02:22:58.167Z,90.4768
2019-04-07T02:24:15.771Z,90.4875
2019-04-07T02:25:33.274Z,90.5516
2019-04-07T02:26:50.755Z,91.0216
2019-04-07T02:28:08.202Z,91.2612
2019-04-07T02:29:25.662Z,91.5450
2019-04-07T02:30:43.118Z,91.6777
2019-04-07T02:32:01.315Z,91.8105
2019-04-07T02:33:19.883Z,91.5770
2019-04-07T02:34:36.351Z,91.1635
2019-04-07T02:35:53.801Z,90.7652
2019-04-07T02:37:11.990Z,90.1396
2019-04-07T02:38:29.385Z,89.5750
2019-04-07T02:39:47.066Z,88.0095
2019-04-07T02:41:04.544Z,87.4296
2019-04-07T02:42:22.800Z,87.5669
2019-04-07T02:43:40.397Z,86.8559
2019-04-07T02:44:57.887Z,86.5812
2019-04-07T02:46:14.833Z,86.3081
2019-04-07T02:47:32.307Z,86.5919
2019-04-07T02:48:50.980Z,86.6728
2019-04-07T02:50:08.868Z,86.0182
2019-04-07T02:51:26.401Z,86.2837
2019-04-07T02:52:43.876Z,86.0014
2019-04-07T02:54:02.546Z,87.0039
2019-04-07T02:55:21.871Z,86.9810
2019-04-07T02:56:39.899Z,87.3014
2019-04-07T02:57:58.263Z,87.0298
2019-04-07T02:59:16.192Z,87.4434
2019-04-07T03:00:33.686Z,87.3930
2019-04-07T03:01:52.003Z,87.4525
2019-04-07T03:03:09.540Z,88.1834
2019-04-07T03:04:27.020Z,88.3162
2019-04-07T03:05:45.261Z,87.9744
2019-04-07T03:07:03.008Z,87.9957
2019-04-07T03:08:20.466Z,88.3360
2019-04-07T03:09:37.909Z,88.1193
2019-04-07T03:10:55.491Z,88.9616
2019-04-07T03:12:13.759Z,88.8441
2019-04-07T03:13:31.634Z,89.1371
2019-04-07T03:14:49.411Z,88.2521
2019-04-07T03:16:07.671Z,88.1895
2019-04-07T03:17:25.662Z,88.3116
2019-04-07T03:18:44.247Z,87.7638
2019-04-07T03:20:02.891Z,87.8355
2019-04-07T03:21:20.492Z,87.8676
2019-04-07T03:22:38.457Z,87.5746
2019-04-07T03:23:56.484Z,88.1102
2019-04-07T03:25:14.014Z,88.3772
2019-04-07T03:26:32.275Z,86.6789
2019-04-07T03:27:51.393Z,87.7760
2019-04-07T03:29:09.752Z,87.4693
2019-04-07T03:30:28.425Z,86.4530
2019-04-07T03:31:50.407Z,87.5151
2019-04-07T03:33:13.235Z,85.3361
2019-04-07T03:34:33.388Z,85.6352
2019-04-07T03:35:53.874Z,86.5080
2019-04-07T03:37:27.089Z,86.5324
2019-04-07T03:38:36.710Z,86.7155
2019-04-07T03:39:54.289Z,87.8447
2019-04-07T03:41:12.011Z,86.4027
2019-04-07T03:42:29.833Z,86.9016
2019-04-07T03:43:48.317Z,84.7593
2019-04-07T03:45:06.073Z,85.1987
2019-04-07T03:46:23.730Z,86.4485
2019-04-07T03:47:42.319Z,86.8971
2019-04-07T03:48:59.931Z,86.5690
2019-04-07T03:50:18.544Z,86.0182
2019-04-07T03:51:36.402Z,86.1555
2019-04-07T03:52:54.466Z,85.0477
2019-04-07T03:54:12.930Z,85.7801
2019-04-07T03:55:31.097Z,85.4704
2019-04-07T03:56:48.846Z,85.6260
2019-04-07T03:58:08.020Z,87.0451
2019-04-07T03:59:24.948Z,86.5721
2019-04-07T04:00:43.426Z,88.3085
2019-04-07T04:02:00.900Z,89.5476
2019-04-07T04:03:19.289Z,90.2342
2019-04-07T04:04:37.267Z,91.0094
2019-04-07T04:05:55.165Z,90.8431
2019-04-07T04:07:22.609Z,90.4646
2019-04-07T04:08:36.240Z,90.8675
2019-04-07T04:09:54.579Z,90.7668
2019-04-07T04:11:12.043Z,89.3370
2019-04-07T04:12:30.021Z,90.2769
2019-04-07T04:13:47.805Z,91.0643
2019-04-07T04:15:06.675Z,91.6808
2019-04-07T04:16:24.923Z,91.7556
2019-04-07T04:17:43.067Z,92.2225
2019-04-07T04:19:00.517Z,92.5429
2019-04-07T04:20:17.962Z,92.9122
2019-04-07T04:21:36.363Z,91.8792
2019-04-07T04:22:54.726Z,90.9590
2019-04-07T04:24:12.327Z,92.2347
2019-04-07T04:25:30.406Z,92.6253
2019-04-07T04:26:48.038Z,92.7489
2019-04-07T04:28:05.517Z,92.5933
2019-04-07T04:29:23.358Z,92.7977
2019-04-07T04:30:42.042Z,93.3288
2019-04-07T04:32:01.399Z,93.5042
2019-04-07T04:33:19.904Z,93.3974
2019-04-07T04:34:39.009Z,93.6736
2019-04-07T04:35:56.537Z,93.9376
2019-04-07T04:37:14.770Z,94.0978
2019-04-07T04:38:32.410Z,93.9071
2019-04-07T04:39:50.975Z,94.2306
2019-04-07T04:41:08.726Z,94.0032
2019-04-07T04:42:26.823Z,94.0673
2019-04-07T04:43:45.150Z,94.2458
2019-04-07T04:45:02.471Z,94.0856
2019-04-07T04:46:20.055Z,93.8781
2019-04-07T04:47:38.128Z,93.7087
2019-04-07T04:48:56.724Z,93.8064
2019-04-07T04:50:14.825Z,93.6599
2019-04-07T04:51:36.271Z,93.7957
2019-04-07T04:52:54.759Z,93.9193
2019-04-07T04:54:12.585Z,94.5891
2019-04-07T04:55:30.129Z,94.5098
2019-04-07T04:56:47.558Z,94.3374
2019-04-07T04:58:05.420Z,94.4732
2019-04-07T04:59:22.989Z,95.0500
2019-04-07T05:00:41.369Z,95.0790
2019-04-07T05:01:59.034Z,95.1339
2019-04-07T05:03:17.364Z,94.8714
2019-04-07T05:04:35.590Z,94.9950
2019-04-07T05:05:53.478Z,94.9355
2019-04-07T05:07:11.317Z,94.4366
2019-04-07T05:08:29.601Z,94.1909
2019-04-07T05:09:52.504Z,94.2718
2019-04-07T05:11:09.611Z,94.4198
2019-04-07T05:12:27.441Z,93.5958
2019-04-07T05:13:44.972Z,93.0037
2019-04-07T05:15:02.453Z,92.7718
2019-04-07T05:16:19.901Z,90.8309
2019-04-07T05:17:36.929Z,89.3797
2019-04-07T05:18:54.578Z,88.9586
2019-04-07T05:20:12.402Z,87.0863
2019-04-07T05:21:30.381Z,86.7781
2019-04-07T05:22:48.726Z,86.5126
2019-04-07T05:24:06.812Z,87.0207
2019-04-07T05:25:24.939Z,86.5187
2019-04-07T05:26:43.024Z,86.1387
2019-04-07T05:28:01.180Z,85.6214
2019-04-07T05:29:18.703Z,85.8808
2019-04-07T05:30:36.562Z,86.2943
2019-04-07T05:31:54.091Z,86.4302
2019-04-07T05:33:12.077Z,85.5802
2019-04-07T05:34:29.572Z,85.8396
2019-04-07T05:35:47.009Z,85.6672
2019-04-07T05:37:04.439Z,85.4688
2019-04-07T05:38:22.338Z,85.3086
2019-04-07T05:39:40.370Z,83.8041
2019-04-07T05:40:58.664Z,84.0909
2019-04-07T05:42:16.642Z,83.4150
2019-04-07T05:43:35.444Z,81.9028
2019-04-07T05:44:53.574Z,83.9033
2019-04-07T05:46:11.059Z,82.8336
2019-04-07T05:47:27.637Z,82.7329
2019-04-07T05:48:45.294Z,83.2135
2019-04-07T05:50:04.111Z,81.7243
2019-04-07T05:51:22.875Z,82.4033
2019-04-07T05:52:41.098Z,82.6078
2019-04-07T05:53:59.284Z,84.8829
2019-04-07T05:55:20.646Z,83.2914
2019-04-07T05:56:39.321Z,80.4517
2019-04-07T05:57:57.501Z,83.2135
2019-04-07T05:59:15.667Z,84.6311
2019-04-07T06:00:33.981Z,84.9485
2019-04-07T06:01:54.808Z,86.3218
2019-04-07T06:03:13.903Z,85.7542
2019-04-07T06:04:31.502Z,85.1713
2019-04-07T06:05:51.117Z,86.7277
2019-04-07T06:07:09.130Z,87.2465
2019-04-07T06:08:32.564Z,86.1982
2019-04-07T06:09:51.262Z,84.6449
2019-04-07T06:11:10.409Z,84.5548
2019-04-07T06:12:28.859Z,86.6087
2019-04-07T06:13:46.611Z,86.0975
2019-04-07T06:15:04.237Z,86.7414
2019-04-07T06:16:22.555Z,84.9058
2019-04-07T06:17:40.082Z,82.9099
2019-04-07T06:18:57.758Z,83.9048
2019-04-07T06:20:17.547Z,82.3835
2019-04-07T06:21:35.198Z,78.1414
2019-04-07T06:22:53.742Z,76.4462
2019-04-07T06:24:12.233Z,80.4532
2019-04-07T06:25:33.096Z,76.4340
2019-04-07T06:26:52.105Z,81.3962
2019-04-07T06:28:09.662Z,74.8394
2019-04-07T06:29:27.962Z,77.9202
2019-04-07T06:30:46.159Z,77.9431
2019-04-07T06:32:05.513Z,78.1033
2019-04-07T06:33:25.299Z,75.6329
2019-04-07T06:34:44.173Z,79.6246
2019-04-07T06:36:01.894Z,77.6730
2019-04-07T06:37:20.130Z,77.7371
2019-04-07T06:38:41.617Z,80.3372
2019-04-07T06:39:59.950Z,79.6689
2019-04-07T06:41:17.430Z,79.6658
2019-04-07T06:42:35.461Z,81.3367
2019-04-07T06:43:52.963Z,81.0056
2019-04-07T06:45:10.875Z,79.4995
2019-04-07T06:46:28.686Z,76.7865
2019-04-07T06:47:46.389Z,79.3957
2019-04-07T06:49:04.282Z,78.9960
2019-04-07T06:50:22.454Z,77.5860
2019-04-07T06:51:39.945Z,75.5688
2019-04-07T06:52:57.699Z,77.0733
2019-04-07T06:54:18.538Z,71.2489
2019-04-07T06:55:37.554Z,72.5856
2019-04-07T06:56:55.500Z,71.9951
2019-04-07T06:58:12.981Z,69.5048
2019-04-07T06:59:30.434Z,69.6010
2019-04-07T07:00:46.967Z,70.1885
2019-04-07T07:02:04.463Z,72.3888
2019-04-07T07:03:22.484Z,71.7311
2019-04-07T07:04:43.593Z,74.2061
2019-04-07T07:06:03.655Z,72.5414
2019-04-07T07:07:21.558Z,72.7321
2019-04-07T07:08:45.830Z,72.2988
2019-04-07T07:10:02.126Z,71.4412
2019-04-07T07:11:28.060Z,73.5515
2019-04-07T07:12:42.536Z,72.4941
2019-04-07T07:13:59.009Z,69.9550
2019-04-07T07:15:16.436Z,67.4372
2019-04-07T07:16:33.931Z,69.5338
2019-04-07T07:17:52.238Z,71.1711
2019-04-07T07:19:12.907Z,68.7404
2019-04-07T07:20:31.193Z,72.2377
2019-04-07T07:21:49.052Z,69.8253
2019-04-07T07:23:07.676Z,72.2881
2019-04-07T07:24:26.345Z,70.1015
2019-04-07T07:25:44.013Z,69.3324
2019-04-07T07:27:02.684Z,69.7704
2019-04-07T07:28:23.710Z,71.3466
2019-04-07T07:29:45.341Z,70.2098
2019-04-07T07:31:04.298Z,67.8172
2019-04-07T07:32:22.560Z,68.6259
2019-04-07T07:33:42.440Z,66.9963
2019-04-07T07:35:01.038Z,67.5975
2019-04-07T07:36:21.419Z,70.2281
2019-04-07T07:37:40.151Z,66.1860
2019-04-07T07:39:02.269Z,65.5680
2019-04-07T07:40:22.119Z,63.2303
2019-04-07T07:41:41.014Z,63.3936
2019-04-07T07:42:59.438Z,63.7140
2019-04-07T07:44:17.581Z,63.5142
2019-04-07T07:45:35.052Z,63.8849
2019-04-07T07:46:52.815Z,63.6362
2019-04-07T07:48:10.889Z,62.5971
2019-04-07T07:49:33.535Z,66.8406
2019-04-07T07:50:51.212Z,64.9653
2019-04-07T07:52:08.669Z,65.0477
2019-04-07T07:53:28.238Z,66.8101
2019-04-07T07:54:46.356Z,70.0221
2019-04-07T07:56:08.454Z,66.0868
2019-04-07T07:57:26.229Z,65.8717
2019-04-07T07:58:43.935Z,65.7481
2019-04-07T08:00:04.550Z,65.0965
2019-04-07T08:01:24.427Z,66.0685
2019-04-07T08:02:42.050Z,66.0182
2019-04-07T08:03:59.746Z,68.9189
2019-04-07T08:05:17.250Z,68.6137
2019-04-07T08:06:36.680Z,68.2429
2019-04-07T08:07:56.784Z,68.0766
2019-04-07T08:09:15.510Z,67.5135
2019-04-07T08:10:36.354Z,66.8696
2019-04-07T08:11:54.388Z,69.8085
2019-04-07T08:13:11.868Z,66.6728
2019-04-07T08:14:29.364Z,66.7964
2019-04-07T08:15:46.946Z,67.0466
2019-04-07T08:17:04.483Z,64.7593
2019-04-07T08:18:21.906Z,65.5085
2019-04-07T08:19:42.257Z,64.0253
2019-04-07T08:21:00.765Z,64.1413
2019-04-07T08:22:27.462Z,66.6499
2019-04-07T08:23:43.650Z,65.2171
2019-04-07T08:25:02.573Z,67.4098
2019-04-07T08:26:23.890Z,65.5421
2019-04-07T08:27:41.991Z,66.1082
2019-04-07T08:29:00.102Z,65.7252
2019-04-07T08:30:17.331Z,64.1917
2019-04-07T08:31:34.923Z,64.4022
2019-04-07T08:32:53.242Z,68.1178
2019-04-07T08:34:10.955Z,65.8671
2019-04-07T08:35:28.849Z,63.2395
2019-04-07T08:36:42.490Z,61.0864
2019-04-07T08:38:00.975Z,61.2741
2019-04-07T08:39:23.771Z,65.1026
2019-04-07T08:40:40.842Z,61.9623
2019-04-07T08:41:58.303Z,59.6414
2019-04-07T08:43:19.680Z,62.8092
2019-04-07T08:44:38.146Z,61.2924
2019-04-07T08:45:55.764Z,57.7630
2019-04-07T08:47:18.844Z,56.0113
2019-04-07T08:48:35.587Z,54.4305
2019-04-07T08:49:55.434Z,55.6588
2019-04-07T08:51:14.904Z,54.5266
2019-04-07T08:52:33.153Z,53.3516
2019-04-07T08:53:50.622Z,53.9590
2019-04-07T08:55:08.083Z,56.3760
2019-04-07T08:56:26.648Z,52.4117
2019-04-07T08:57:45.680Z,52.5902
2019-04-07T08:59:03.897Z,55.7626
2019-04-07T09:00:21.463Z,58.0758
2019-04-07T09:01:38.937Z,59.8566
2019-04-07T09:03:03.642Z,58.4314
2019-04-07T09:04:18.928Z,56.5515
2019-04-07T09:05:37.377Z,58.1903
2019-04-07T09:06:54.890Z,58.3413
2019-04-07T09:08:12.317Z,53.4417
2019-04-07T09:09:33.907Z,55.5703
2019-04-07T09:10:53.828Z,59.2844
2019-04-07T09:12:11.448Z,56.7163
2019-04-07T09:13:31.677Z,54.9935
2019-04-07T09:14:51.462Z,54.5861
2019-04-07T09:16:11.527Z,55.6573
2019-04-07T09:17:38.577Z,55.0118
2019-04-07T09:19:01.120Z,52.9473
2019-04-07T09:20:16.939Z,55.0454
2019-04-07T09:21:39.975Z,57.1862
2019-04-07T09:22:58.257Z,51.5145
2019-04-07T09:24:16.757Z,54.0795
2019-04-07T09:25:37.855Z,60.6699
2019-04-07T09:26:56.666Z,62.5254
2019-04-07T09:28:14.300Z,62.6383
2019-04-07T09:29:32.431Z,55.6268
2019-04-07T09:30:42.157Z,56.4645
2019-04-07T09:32:00.105Z,55.8816
2019-04-07T09:33:16.730Z,63.7507
2019-04-07T09:34:34.555Z,63.1800
2019-04-07T09:35:56.673Z,62.4521
2019-04-07T09:37:17.675Z,60.6653
2019-04-07T09:38:36.943Z,64.0818
2019-04-07T09:39:59.553Z,62.0157
2019-04-07T09:41:21.569Z,62.5193
2019-04-07T09:42:40.223Z,62.8824
2019-04-07T09:44:01.113Z,66.9795
2019-04-07T09:45:19.979Z,65.2216
2019-04-07T09:46:41.629Z,63.0137
2019-04-07T09:47:59.982Z,62.9404
2019-04-07T09:49:21.239Z,63.5874
2019-04-07T09:50:40.805Z,61.3993
2019-04-07T09:51:58.287Z,62.0157
2019-04-07T09:53:17.071Z,65.3574
2019-04-07T09:54:36.190Z,64.1947
2019-04-07T09:55:55.558Z,58.7167
2019-04-07T09:57:14.154Z,59.2157
2019-04-07T09:58:32.006Z,59.2111
2019-04-07T09:59:52.209Z,58.0026
2019-04-07T10:01:11.078Z,55.8129
2019-04-07T10:02:32.038Z,54.4991
2019-04-07T10:03:51.063Z,55.0027
2019-04-07T10:05:11.131Z,59.7742
2019-04-07T10:06:29.843Z,65.8442
2019-04-07T10:07:47.905Z,62.0127
2019-04-07T10:09:05.575Z,60.9049
2019-04-07T10:10:23.731Z,62.6017
2019-04-07T10:11:41.760Z,61.6144
2019-04-07T10:12:59.743Z,64.9134
2019-04-07T10:14:18.457Z,64.8692
2019-04-07T10:15:36.152Z,61.4618
2019-04-07T10:16:53.672Z,61.9669
2019-04-07T10:18:11.135Z,64.6952
2019-04-07T10:19:29.252Z,60.7858
2019-04-07T10:20:47.370Z,60.1999
2019-04-07T10:22:04.808Z,61.4954
2019-04-07T10:23:23.097Z,60.3738
2019-04-07T10:24:40.607Z,60.3540
2019-04-07T10:25:58.461Z,59.8383
2019-04-07T10:27:17.620Z,59.6689
2019-04-07T10:28:36.710Z,58.6831
2019-04-07T10:29:56.611Z,59.3118
2019-04-07T10:31:13.801Z,60.7034
2019-04-07T10:32:31.887Z,61.5641
2019-04-07T10:33:49.486Z,64.3137
2019-04-07T10:35:07.054Z,64.8310
2019-04-07T10:36:25.801Z,63.4913
2019-04-07T10:37:44.301Z,60.2823
2019-04-07T10:39:03.160Z,64.2130
2019-04-07T10:40:23.063Z,64.2786
2019-04-07T10:41:41.737Z,62.0066
2019-04-07T10:42:59.757Z,63.6469
2019-04-07T10:44:17.906Z,66.4012
2019-04-07T10:45:35.515Z,66.0594
2019-04-07T10:46:52.961Z,65.4230
2019-04-07T10:48:11.109Z,64.4144
2019-04-07T10:49:29.568Z,64.3656
2019-04-07T10:50:47.067Z,64.9653
2019-04-07T10:52:04.575Z,65.3666
2019-04-07T10:53:22.727Z,65.2995
2019-04-07T10:54:40.478Z,66.8147
2019-04-07T10:55:57.997Z,64.7318
2019-04-07T10:57:16.634Z,63.2700
2019-04-07T10:58:35.109Z,62.6612
2019-04-07T10:59:53.295Z,60.8728
2019-04-07T11:01:11.124Z,59.9557
2019-04-07T11:02:29.362Z,62.6932
2019-04-07T11:03:46.871Z,59.5544
2019-04-07T11:05:05.111Z,61.8982
2019-04-07T11:06:22.788Z,60.3967
2019-04-07T11:07:40.431Z,58.9364
2019-04-07T11:08:57.918Z,63.9719
2019-04-07T11:10:15.885Z,65.9861
2019-04-07T11:11:33.374Z,62.2034
2019-04-07T11:12:51.354Z,61.6037
2019-04-07T11:14:09.855Z,62.4506
2019-04-07T11:15:28.304Z,63.3722
2019-04-07T11:16:46.998Z,62.0310
2019-04-07T11:18:04.614Z,63.2013
2019-04-07T11:19:22.084Z,61.2024
2019-04-07T11:20:39.525Z,61.7914
2019-04-07T11:21:57.961Z,63.9994
2019-04-07T11:23:15.609Z,63.3906
2019-04-07T11:24:33.859Z,62.0081
2019-04-07T11:25:51.400Z,61.1154
2019-04-07T11:27:09.275Z,60.7569
2019-04-07T11:28:28.855Z,63.0777
2019-04-07T11:29:46.715Z,60.4456
2019-04-07T11:31:04.165Z,62.1363
2019-04-07T11:32:20.655Z,59.2371
2019-04-07T11:33:38.114Z,60.3464
2019-04-07T11:34:55.551Z,59.4400
2019-04-07T11:36:13.811Z,61.7960
2019-04-07T11:37:31.346Z,60.3326
2019-04-07T11:38:49.477Z,59.5438
2019-04-07T11:40:06.993Z,59.4034
2019-04-07T11:41:27.326Z,58.7427
2019-04-07T11:42:46.075Z,59.8291
2019-04-07T11:44:03.580Z,63.3082
2019-04-07T11:45:21.061Z,61.2390
2019-04-07T11:46:38.923Z,59.5407
2019-04-07T11:47:55.395Z,59.7375
2019-04-07T11:49:13.506Z,60.7126
2019-04-07T11:50:31.055Z,58.8754
2019-04-07T11:51:48.956Z,59.1455
2019-04-07T11:53:07.443Z,62.1408
2019-04-07T11:54:25.201Z,63.6515
2019-04-07T11:55:43.179Z,61.5412
2019-04-07T11:57:00.896Z,60.7065
2019-04-07T11:58:25.534Z,61.7319
2019-04-07T11:59:39.870Z,61.0727
2019-04-07T12:00:58.103Z,60.6027
2019-04-07T12:02:18.561Z,60.8225
2019-04-07T12:03:36.467Z,61.3611
2019-04-07T12:04:55.382Z,61.2665
2019-04-07T12:06:14.335Z,60.5875
2019-04-07T12:07:33.569Z,63.4089
2019-04-07T12:08:51.173Z,63.1235
2019-04-07T12:10:09.548Z,58.3535
2019-04-07T12:11:27.745Z,59.8795
2019-04-07T12:12:45.288Z,61.1917
2019-04-07T12:14:02.845Z,60.0351
2019-04-07T12:15:24.172Z,58.2727
2019-04-07T12:16:42.705Z,59.1043
2019-04-07T12:18:00.311Z,58.5061
2019-04-07T12:19:20.391Z,59.7635
2019-04-07T12:20:42.011Z,60.3281
2019-04-07T12:21:59.510Z,58.3780
2019-04-07T12:23:21.773Z,58.2040
2019-04-07T12:24:39.359Z,59.0723
2019-04-07T12:25:57.586Z,59.7040
2019-04-07T12:27:15.183Z,60.0519
2019-04-07T12:28:33.392Z,61.5686
2019-04-07T12:29:51.898Z,58.7060
2019-04-07T12:31:10.215Z,59.0555
2019-04-07T12:32:27.708Z,59.7177
2019-04-07T12:33:45.221Z,59.0921
2019-04-07T12:35:03.183Z,61.9715
2019-04-07T12:36:21.581Z,61.7197
2019-04-07T12:37:43.340Z,61.2024
2019-04-07T12:39:01.918Z,58.1888
2019-04-07T12:40:22.341Z,58.0575
2019-04-07T12:41:40.064Z,57.9965
2019-04-07T12:42:58.088Z,58.3032
2019-04-07T12:44:15.863Z,58.6053
2019-04-07T12:45:35.642Z,59.2248
2019-04-07T12:46:54.008Z,60.9857
2019-04-07T12:48:11.625Z,60.2258
2019-04-07T12:49:29.863Z,56.9451
2019-04-07T12:50:49.825Z,57.6898
2019-04-07T12:52:08.573Z,57.2702
2019-04-07T12:53:26.384Z,54.8577
2019-04-07T12:54:43.969Z,54.4915
2019-04-07T12:56:02.453Z,54.9065
2019-04-07T12:57:20.188Z,54.3450
2019-04-07T12:58:41.221Z,55.6023
2019-04-07T12:59:59.806Z,52.6238
2019-04-07T13:01:19.802Z,54.0749
2019-04-07T13:02:38.127Z,53.9040
2019-04-07T13:03:55.851Z,54.9523
2019-04-07T13:05:13.490Z,55.7641
2019-04-07T13:06:30.995Z,52.5963
2019-04-07T13:07:51.247Z,50.1915
2019-04-07T13:09:10.342Z,49.6849
2019-04-07T13:10:28.062Z,50.1411
2019-04-07T13:11:49.425Z,49.4148
2019-04-07T13:13:08.022Z,50.7012
2019-04-07T13:14:25.707Z,48.8975
2019-04-07T13:15:47.478Z,49.8161
2019-04-07T13:17:05.707Z,50.8186
2019-04-07T13:18:23.187Z,50.8507
2019-04-07T13:19:44.043Z,50.5867
2019-04-07T13:21:03.321Z,51.1452
2019-04-07T13:22:21.526Z,46.6163
2019-04-07T13:23:39.717Z,45.6062
2019-04-07T13:24:59.008Z,47.2526
2019-04-07T13:26:17.604Z,49.0761
2019-04-07T13:27:37.231Z,48.7419
2019-04-07T13:28:56.426Z,49.5918
2019-04-07T13:30:13.914Z,48.3146
2019-04-07T13:31:31.864Z,48.9006
2019-04-07T13:32:53.004Z,48.4123
2019-04-07T13:34:12.690Z,48.6671
2019-04-07T13:35:29.261Z,47.7440
2019-04-07T13:36:46.695Z,48.0491
2019-04-07T13:38:05.559Z,48.0674
2019-04-07T13:39:22.021Z,49.2821
2019-04-07T13:40:42.655Z,52.5689
2019-04-07T13:42:02.217Z,46.9551
2019-04-07T13:43:19.686Z,45.6977
2019-04-07T13:44:39.627Z,47.6005
2019-04-07T13:45:58.830Z,49.3324
2019-04-07T13:47:16.403Z,50.6401
2019-04-07T13:48:35.509Z,52.7001
2019-04-07T13:49:55.406Z,53.6904
2019-04-07T13:51:15.745Z,51.4549
2019-04-07T13:52:34.411Z,51.6854
2019-04-07T13:53:52.331Z,50.8141
2019-04-07T13:55:09.826Z,49.4087
2019-04-07T13:56:27.276Z,51.1391
2019-04-07T13:57:45.003Z,49.5430
2019-04-07T13:59:05.961Z,49.4362
2019-04-07T14:00:25.223Z,50.6325
2019-04-07T14:01:42.710Z,51.1437
2019-04-07T14:03:01.320Z,51.4092
2019-04-07T14:04:21.159Z,54.8531
2019-04-07T14:05:40.687Z,50.7424
2019-04-07T14:06:58.820Z,50.9834
2019-04-07T14:08:16.466Z,52.4758
2019-04-07T14:09:35.380Z,53.6400
2019-04-07T14:10:52.912Z,50.5821
2019-04-07T14:12:12.530Z,50.6584
2019-04-07T14:13:31.153Z,51.9646
2019-04-07T14:14:49.398Z,51.3634
2019-04-07T14:16:07.419Z,50.6355
2019-04-07T14:17:25.004Z,52.5719
2019-04-07T14:18:44.991Z,50.0862
2019-04-07T14:20:05.011Z,50.6950
2019-04-07T14:21:22.788Z,50.3288
2019-04-07T14:22:40.996Z,51.2673
2019-04-07T14:23:59.315Z,50.9804
2019-04-07T14:25:16.823Z,48.7999
2019-04-07T14:26:34.646Z,50.3243
2019-04-07T14:27:52.601Z,53.3227
2019-04-07T14:29:10.109Z,53.5653
2019-04-07T14:30:28.044Z,54.2062
2019-04-07T14:31:45.542Z,54.8287
2019-04-07T14:33:03.454Z,57.3007
2019-04-07T14:34:21.771Z,55.4879
2019-04-07T14:35:39.249Z,56.2387
2019-04-07T14:37:00.030Z,50.3670
2019-04-07T14:38:17.516Z,51.9051
2019-04-07T14:39:35.809Z,48.6000
2019-04-07T14:40:53.313Z,48.7907
2019-04-07T14:42:11.266Z,50.3761
2019-04-07T14:43:29.894Z,50.7424
2019-04-07T14:44:47.380Z,52.4804
2019-04-07T14:46:04.384Z,53.1136
2019-04-07T14:47:21.914Z,51.5297
2019-04-07T14:48:40.212Z,51.5877
2019-04-07T14:49:57.749Z,51.4412
2019-04-07T14:51:15.539Z,49.4148
2019-04-07T14:52:33.722Z,49.5964
2019-04-07T14:53:51.185Z,49.9229
2019-04-07T14:55:08.654Z,49.0532
2019-04-07T14:56:26.295Z,50.0267
2019-04-07T14:57:43.751Z,52.1431
2019-04-07T14:59:00.651Z,50.1930
2019-04-07T15:00:18.374Z,50.8064
2019-04-07T15:01:36.765Z,51.3603
2019-04-07T15:02:54.267Z,49.0166
2019-04-07T15:04:11.753Z,48.5298
2019-04-07T15:05:29.846Z,49.0562
2019-04-07T15:06:47.363Z,48.9937
2019-04-07T15:07:59.483Z,49.1798
2019-04-07T15:09:18.793Z,51.1452
2019-04-07T15:10:37.241Z,53.1304
2019-04-07T15:11:54.809Z,52.6970
2019-04-07T15:13:12.257Z,53.4112
2019-04-07T15:14:32.874Z,53.7224
2019-04-07T15:15:51.673Z,53.5561
2019-04-07T15:17:10.955Z,55.1720
2019-04-07T15:18:28.654Z,52.9809
2019-04-07T15:19:46.250Z,50.6767
2019-04-07T15:21:04.575Z,52.3491
2019-04-07T15:22:25.887Z,54.0688
2019-04-07T15:23:46.795Z,51.7891
2019-04-07T15:25:07.201Z,53.3059
2019-04-07T15:26:25.520Z,50.8141
2019-04-07T15:27:42.981Z,50.6416
2019-04-07T15:29:05.334Z,50.2281
2019-04-07T15:30:22.853Z,52.1614
2019-04-07T15:31:40.612Z,51.2764
2019-04-07T15:33:01.008Z,53.7942
2019-04-07T15:34:20.126Z,52.5582
2019-04-07T15:35:38.289Z,54.4961
2019-04-07T15:36:56.797Z,52.5139
2019-04-07T15:38:15.285Z,52.4208
2019-04-07T15:39:32.887Z,53.4249
2019-04-07T15:40:50.641Z,56.0342
2019-04-07T15:42:09.463Z,55.2422
2019-04-07T15:43:27.991Z,55.6481
2019-04-07T15:44:46.267Z,56.8063
2019-04-07T15:46:03.845Z,57.9049
2019-04-07T15:47:22.234Z,56.2722